Time;durP1;ratioP1;P1;durP2;ratioP2;P2;SDS_P1;SDS_P2;PMS_P1;PMS_P2;Temp;Humidity;BMP_temperature;BMP_pressure;BME280_temperature;BME280_humidity;BME280_pressure;Samples;Min_cycle;Max_cycle;Signal;HPM_P1;HPM_P2
2021/04/08 00:00:30;;;;;;;9.43;4.25;;;;;;;3.81;57.85;100079.47;4468991;32;34695;-81
2021/04/08 00:02:57;;;;;;;14.40;4.53;;;;;;;3.72;57.72;100074.34;4470332;32;32491;-81
2021/04/08 00:05:24;;;;;;;7.97;4.53;;;;;;;3.44;58.49;100081.63;4470047;32;33369;-81
2021/04/08 00:07:52;;;;;;;6.30;3.92;;;;;;;3.67;57.73;100077.91;4456936;32;33630;-81
2021/04/08 00:10:20;;;;;;;10.55;4.18;;;;;;;3.73;57.35;100081.31;4457540;32;33717;-81
2021/04/08 00:12:47;;;;;;;6.53;4.22;;;;;;;3.65;57.50;100077.91;4457055;32;33524;-81
2021/04/08 00:15:15;;;;;;;6.70;4.18;;;;;;;3.56;57.75;100078.00;4450771;32;33059;-81
2021/04/08 00:17:43;;;;;;;8.40;4.70;;;;;;;3.26;57.49;100073.97;4470127;32;33654;-81
2021/04/08 00:20:19;;;;;;;5.47;3.70;;;;;;;3.17;59.18;100080.13;4456562;32;33597;-81
2021/04/08 00:22:47;;;;;;;6.50;4.68;;;;;;;3.21;58.73;100079.22;4480858;32;33401;-81
2021/04/08 00:25:14;;;;;;;7.80;4.93;;;;;;;3.18;58.80;100081.00;4483220;32;34117;-81
2021/04/08 00:27:43;;;;;;;8.40;5.35;;;;;;;3.17;58.31;100080.13;4483091;32;35728;-81
2021/04/08 00:30:11;;;;;;;10.05;6.00;;;;;;;3.18;58.60;100086.22;4482267;32;33352;-81
2021/04/08 00:32:38;;;;;;;9.73;5.12;;;;;;;3.15;59.02;100081.03;4470105;32;33209;-81
2021/04/08 00:35:06;;;;;;;6.32;4.43;;;;;;;3.43;57.88;100082.50;4482488;32;33218;-81
2021/04/08 00:37:34;;;;;;;7.90;4.43;;;;;;;3.29;58.26;100085.25;4470081;32;33618;-81
2021/04/08 00:40:05;;;;;;;7.43;5.22;;;;;;;3.29;58.53;100090.47;4483150;32;34512;-81
2021/04/08 00:42:32;;;;;;;7.37;4.00;;;;;;;3.25;58.40;100093.12;4482218;32;33574;-81
2021/04/08 00:45:03;;;;;;;8.38;4.00;;;;;;;3.28;57.92;100093.09;4483594;32;34227;-81
2021/04/08 00:47:30;;;;;;;6.12;4.00;;;;;;;3.10;58.27;100091.53;4469163;32;32696;-81
2021/04/08 00:49:57;;;;;;;7.32;4.95;;;;;;;3.09;58.16;100095.00;4482885;32;33870;-81
2021/04/08 00:52:25;;;;;;;8.73;4.45;;;;;;;3.04;58.32;100092.44;4482676;32;34308;-81
2021/04/08 00:54:52;;;;;;;7.50;3.90;;;;;;;3.10;58.12;100099.34;4483463;32;32176;-81
2021/04/08 00:57:19;;;;;;;7.72;4.57;;;;;;;2.95;58.94;100100.34;4469045;32;33291;-81
2021/04/08 00:59:47;;;;;;;12.43;4.85;;;;;;;2.54;60.13;100103.22;4482475;32;33185;-81
2021/04/08 01:02:14;;;;;;;13.00;5.68;;;;;;;2.91;58.82;100108.19;4482011;32;34253;-81
2021/04/08 01:04:42;;;;;;;11.25;5.55;;;;;;;2.60;59.76;100110.16;4467627;32;33399;-80
2021/04/08 01:07:09;;;;;;;8.02;4.20;;;;;;;2.36;60.58;100119.84;4482403;32;33915;-80
2021/04/08 01:09:37;;;;;;;6.05;3.25;;;;;;;2.51;59.85;100114.53;4482575;32;33665;-80
2021/04/08 01:12:05;;;;;;;6.15;2.42;;;;;;;2.31;60.12;100117.25;4464726;32;34052;-81
2021/04/08 01:14:32;;;;;;;5.28;3.20;;;;;;;2.65;58.96;100119.66;4485103;32;34085;-81
2021/04/08 01:17:14;;;;;;;3.72;2.60;;;;;;;2.57;59.15;100126.69;4484909;32;33709;-81
2021/04/08 01:19:51;;;;;;;6.68;3.08;;;;;;;2.58;58.76;100128.41;4469986;32;34303;-81
2021/04/08 01:22:55;;;;;;;4.75;2.70;;;;;;;2.36;59.71;100129.41;4482470;32;34532;-81
2021/04/08 01:26:02;;;;;;;3.95;2.83;;;;;;;2.48;59.72;100129.34;4484960;32;33904;-81
2021/04/08 01:28:34;;;;;;;4.37;2.50;;;;;;;2.29;59.96;100121.63;4416117;32;33274;-81
2021/04/08 01:31:04;;;;;;;4.60;2.65;;;;;;;2.41;59.70;100130.25;4459602;32;33611;-81
2021/04/08 01:33:38;;;;;;;5.57;2.50;;;;;;;2.26;60.04;100134.66;4484327;32;34607;-81
2021/04/08 01:36:27;;;;;;;3.60;2.37;;;;;;;2.49;59.19;100128.47;4471148;32;33769;-81
2021/04/08 01:39:03;;;;;;;4.93;2.62;;;;;;;2.51;58.83;100129.31;4475228;32;33341;-81
2021/04/08 01:41:35;;;;;;;5.32;2.95;;;;;;;2.72;57.97;100123.97;4485671;32;33814;-81
2021/04/08 01:44:04;;;;;;;5.00;2.42;;;;;;;2.72;58.02;100126.59;4471884;32;33611;-81
2021/04/08 01:46:34;;;;;;;4.78;2.78;;;;;;;2.62;58.20;100137.97;4484463;32;34074;-81
2021/04/08 01:49:02;;;;;;;6.12;2.72;;;;;;;2.69;57.91;100131.81;4484499;32;33449;-81
2021/04/08 01:51:30;;;;;;;7.10;2.80;;;;;;;2.74;57.66;100135.25;4484807;32;33796;-81
2021/04/08 01:54:02;;;;;;;6.97;3.17;;;;;;;2.52;58.59;100138.87;4458316;32;32330;-80
2021/04/08 01:56:33;;;;;;;4.10;2.35;;;;;;;2.77;58.06;100129.16;4483301;32;33236;-81
2021/04/08 01:59:00;;;;;;;7.37;3.55;;;;;;;2.88;57.24;100134.28;4471150;32;34190;-81
2021/04/08 02:01:28;;;;;;;5.12;2.55;;;;;;;2.82;57.50;100137.81;4471056;32;33168;-81
2021/04/08 02:03:56;;;;;;;4.78;2.55;;;;;;;2.78;57.62;100143.94;4458492;32;35491;-80
2021/04/08 02:06:26;;;;;;;7.68;2.58;;;;;;;2.76;57.96;100137.88;4485284;32;34128;-80
2021/04/08 02:08:54;;;;;;;5.28;2.80;;;;;;;2.65;58.45;100150.94;4471564;32;33557;-80
2021/04/08 02:11:23;;;;;;;5.35;2.53;;;;;;;2.70;58.09;100150.91;4458544;32;34082;-80
2021/04/08 02:13:51;;;;;;;3.58;2.50;;;;;;;2.72;58.10;100157.00;4471535;32;31829;-80
2021/04/08 02:16:20;;;;;;;3.83;2.75;;;;;;;2.48;58.58;100150.19;4471320;32;32847;-80
2021/04/08 02:18:52;;;;;;;3.85;2.50;;;;;;;2.46;58.57;100146.72;4471002;32;33332;-80
2021/04/08 02:21:20;;;;;;;5.78;2.67;;;;;;;2.66;57.90;100152.72;4471364;32;33801;-80
2021/04/08 02:23:49;;;;;;;4.82;2.75;;;;;;;2.59;57.83;100152.75;4470706;32;34443;-80
2021/04/08 02:26:19;;;;;;;4.40;2.53;;;;;;;2.57;58.33;100150.16;4471446;32;32036;-80
2021/04/08 02:28:47;;;;;;;3.83;2.60;;;;;;;2.23;59.22;100155.53;4477371;32;34175;-80
2021/04/08 02:31:17;;;;;;;6.03;2.60;;;;;;;2.56;58.23;100143.19;4484293;32;34331;-80
2021/04/08 02:33:44;;;;;;;4.25;2.70;;;;;;;2.60;58.42;100150.13;4469972;32;34593;-80
2021/04/08 02:36:13;;;;;;;5.82;2.67;;;;;;;2.76;58.09;100156.13;4484325;32;33232;-80
2021/04/08 02:38:40;;;;;;;9.15;3.00;;;;;;;2.85;57.79;100152.56;4484235;32;33343;-80
2021/04/08 02:41:08;;;;;;;9.15;2.30;;;;;;;2.87;57.87;100156.03;4470086;32;33071;-81
2021/04/08 02:43:36;;;;;;;6.80;2.40;;;;;;;2.93;57.70;100161.22;4471056;32;34135;-81
2021/04/08 02:46:04;;;;;;;6.55;3.25;;;;;;;3.03;57.24;100161.12;4470155;32;32875;-81
2021/04/08 02:48:33;;;;;;;5.82;2.92;;;;;;;2.81;57.37;100164.78;4470866;32;33902;-82
2021/04/08 02:51:06;;;;;;;4.72;2.90;;;;;;;2.72;57.75;100170.06;4481717;32;33790;-81
2021/04/08 02:53:51;;;;;;;3.85;2.83;;;;;;;2.98;56.93;100172.47;4471265;32;33559;-80
2021/04/08 02:56:21;;;;;;;3.90;2.50;;;;;;;2.79;57.31;100177.81;4470439;32;34455;-80
2021/04/08 02:58:49;;;;;;;4.47;2.55;;;;;;;2.88;56.97;100176.88;4483903;32;33286;-80
2021/04/08 03:01:19;;;;;;;6.62;2.45;;;;;;;2.78;56.99;100181.28;4484152;32;33708;-79
2021/04/08 03:03:51;;;;;;;6.70;2.97;;;;;;;2.51;57.59;100189.25;4471334;32;33539;-79
2021/04/08 03:06:20;;;;;;;6.90;2.87;;;;;;;2.52;57.95;100185.81;4484010;32;33034;-80
2021/04/08 03:08:55;;;;;;;3.50;2.25;;;;;;;2.50;58.46;100184.94;4484044;32;33598;-80
2021/04/08 03:11:28;;;;;;;3.85;2.75;;;;;;;2.43;59.08;100183.25;4470563;32;34368;-80
2021/04/08 03:13:58;;;;;;;5.35;2.87;;;;;;;2.44;58.92;100184.97;4470883;32;33549;-81
2021/04/08 03:16:31;;;;;;;5.68;2.83;;;;;;;2.56;58.42;100185.78;4469716;32;34203;-80
2021/04/08 03:19:01;;;;;;;9.18;3.50;;;;;;;2.63;57.85;100177.91;4471177;32;33559;-80
2021/04/08 03:21:29;;;;;;;5.35;2.83;;;;;;;2.56;57.88;100185.78;4471038;32;34816;-80
2021/04/08 03:23:57;;;;;;;6.22;3.55;;;;;;;2.57;57.76;100186.66;4484290;32;34059;-80
2021/04/08 03:26:25;;;;;;;7.75;4.15;;;;;;;2.71;57.13;100184.84;4470863;32;33106;-80
2021/04/08 03:28:53;;;;;;;6.53;3.30;;;;;;;2.50;57.98;100184.94;4471025;32;33391;-80
2021/04/08 03:31:21;;;;;;;7.95;3.17;;;;;;;2.60;57.48;100186.63;4470826;32;32390;-81
2021/04/08 03:33:50;;;;;;;6.40;2.90;;;;;;;2.42;57.73;100186.69;4483547;32;34734;-80
2021/04/08 03:36:18;;;;;;;6.45;3.25;;;;;;;2.43;57.57;100189.31;4482631;32;34057;-79
2021/04/08 03:38:46;;;;;;;10.70;3.55;;;;;;;2.37;57.68;100191.94;4462159;32;32159;-79
2021/04/08 03:41:14;;;;;;;10.70;3.30;;;;;;;2.27;58.15;100185.87;4483531;32;33697;-81
2021/04/08 03:43:42;;;;;;;7.62;3.70;;;;;;;2.23;58.47;100192.00;4483493;32;33608;-79
2021/04/08 03:46:11;;;;;;;7.70;3.70;;;;;;;2.37;58.07;100199.75;4469806;32;33124;-81
2021/04/08 03:48:40;;;;;;;6.35;3.80;;;;;;;2.22;58.52;100203.28;4483835;32;34294;-80
2021/04/08 03:51:08;;;;;;;8.50;4.55;;;;;;;2.18;58.32;100201.53;4483797;32;35327;-80
2021/04/08 03:53:35;;;;;;;6.72;4.62;;;;;;;2.02;59.61;100207.69;4483100;32;33783;-81
2021/04/08 03:56:04;;;;;;;7.93;4.53;;;;;;;2.01;59.83;100205.97;4470741;32;33002;-80
2021/04/08 03:58:32;;;;;;;12.40;4.20;;;;;;;2.27;59.19;100211.94;4470306;32;33200;-81
2021/04/08 04:01:01;;;;;;;6.45;4.15;;;;;;;2.19;59.71;100211.13;4470586;32;33929;-80
2021/04/08 04:03:28;;;;;;;8.23;4.65;;;;;;;2.05;60.36;100213.75;4482679;32;34930;-80
2021/04/08 04:05:56;;;;;;;9.68;5.00;;;;;;;2.30;59.58;100218.91;4470255;32;33391;-80
2021/04/08 04:08:24;;;;;;;9.25;4.62;;;;;;;2.05;60.40;100218.09;4470786;32;33207;-80
2021/04/08 04:10:51;;;;;;;7.18;4.47;;;;;;;2.29;59.79;100218.03;4470611;32;33704;-80
2021/04/08 04:13:18;;;;;;;8.88;5.40;;;;;;;2.27;60.35;100230.19;4470001;32;33683;-81
2021/04/08 04:15:46;;;;;;;12.27;4.97;;;;;;;2.22;60.88;100231.06;4482705;32;34201;-79
2021/04/08 04:18:17;;;;;;;11.35;4.62;;;;;;;2.25;61.19;100237.16;4477854;32;33593;-80
2021/04/08 04:20:45;;;;;;;6.78;4.50;;;;;;;2.34;61.38;100243.22;4477730;32;32890;-80
2021/04/08 04:23:12;;;;;;;5.78;3.78;;;;;;;2.42;61.05;100260.56;4465178;32;33641;-80
2021/04/08 04:25:40;;;;;;;9.27;3.60;;;;;;;1.89;62.86;100258.06;4480815;32;33032;-80
2021/04/08 04:28:07;;;;;;;2.72;2.00;;;;;;;2.29;62.08;100249.31;4464907;32;33422;-80
2021/04/08 04:30:34;;;;;;;3.65;2.37;;;;;;;2.43;61.26;100261.44;4479074;32;33186;-80
2021/04/08 04:33:02;;;;;;;2.45;1.90;;;;;;;2.50;61.35;100269.19;4476955;32;34126;-80
2021/04/08 04:35:30;;;;;;;3.92;2.08;;;;;;;2.64;61.40;100265.69;4478727;32;33297;-79
2021/04/08 04:37:57;;;;;;;2.67;1.87;;;;;;;2.82;62.77;100261.25;4476577;32;33088;-80
2021/04/08 04:40:26;;;;;;;3.00;1.87;;;;;;;2.66;65.26;100267.44;4475224;32;34765;-80
2021/04/08 04:42:53;;;;;;;2.47;1.70;;;;;;;2.93;65.35;100263.81;4473189;32;33661;-80
2021/04/08 04:45:20;;;;;;;2.65;2.03;;;;;;;3.24;64.87;100255.81;4479953;32;30723;-80
2021/04/08 04:47:48;;;;;;;6.35;2.35;;;;;;;3.52;64.28;100259.94;4467667;32;33320;-80
2021/04/08 04:50:15;;;;;;;3.83;2.28;;;;;;;3.29;65.42;100262.72;4465916;32;33327;-80
2021/04/08 04:52:43;;;;;;;3.55;2.10;;;;;;;3.65;64.42;100252.00;4468328;32;32933;-80
2021/04/08 04:55:11;;;;;;;4.68;2.28;;;;;;;3.47;65.40;100260.87;4477700;32;33272;-81
2021/04/08 04:57:38;;;;;;;4.53;2.50;;;;;;;3.56;65.21;100260.78;4466504;32;34750;-81
2021/04/08 05:00:06;;;;;;;3.17;1.87;;;;;;;3.44;66.11;100260.87;4466440;32;34699;-81
2021/04/08 05:02:33;;;;;;;6.00;2.40;;;;;;;3.67;65.67;100256.34;4479639;32;34028;-81
2021/04/08 05:05:01;;;;;;;3.12;1.87;;;;;;;3.61;66.29;100259.03;4467726;32;33025;-80
2021/04/08 05:07:28;;;;;;;3.33;2.22;;;;;;;3.76;66.12;100263.25;4468239;32;33332;-81
2021/04/08 05:09:55;;;;;;;4.85;2.37;;;;;;;3.62;66.91;100265.97;4465516;32;33655;-81
2021/04/08 05:12:23;;;;;;;5.57;2.55;;;;;;;3.75;66.63;100267.59;4475508;32;33577;-81
2021/04/08 05:14:51;;;;;;;4.45;2.33;;;;;;;3.91;66.14;100272.69;4456209;32;34185;-81
2021/04/08 05:17:18;;;;;;;2.95;2.33;;;;;;;3.84;66.49;100267.50;4464404;32;36458;-81
2021/04/08 05:19:46;;;;;;;3.55;2.35;;;;;;;4.03;65.74;100276.03;4465074;32;35550;-80
2021/04/08 05:22:13;;;;;;;2.42;1.87;;;;;;;3.59;67.23;100266.84;4466545;32;33699;-81
2021/04/08 05:24:41;;;;;;;4.15;2.37;;;;;;;3.71;66.93;100272.88;4461601;32;32770;-80
2021/04/08 05:27:11;;;;;;;5.25;2.62;;;;;;;3.70;67.26;100278.94;4477428;32;34234;-81
2021/04/08 05:29:45;;;;;;;3.53;2.10;;;;;;;3.88;66.45;100277.94;4475294;32;33954;-81
2021/04/08 05:32:24;;;;;;;5.20;2.28;;;;;;;3.96;66.22;100273.50;4451959;32;33145;-80
2021/04/08 05:35:05;;;;;;;2.67;2.10;;;;;;;4.05;66.13;100278.66;4454139;32;32190;-80
2021/04/08 05:37:33;;;;;;;1.97;1.67;;;;;;;3.59;67.73;100279.03;4463273;32;33819;-80
2021/04/08 05:40:01;;;;;;;3.60;2.25;;;;;;;3.80;67.14;100275.41;4475988;32;33615;-80
2021/04/08 05:42:28;;;;;;;2.70;1.98;;;;;;;3.81;67.05;100267.53;4479751;32;33880;-80
2021/04/08 05:45:10;;;;;;;3.42;2.03;;;;;;;3.87;67.00;100282.28;4449686;32;32614;-80
2021/04/08 05:47:53;;;;;;;2.15;1.58;;;;;;;3.87;66.84;100277.06;4458367;32;34239;-81
2021/04/08 05:50:21;;;;;;;1.45;1.30;;;;;;;4.05;66.65;100281.28;4452409;32;32998;-81
2021/04/08 05:52:48;;;;;;;6.65;1.85;;;;;;;3.92;67.29;100277.87;4480047;32;33606;-81
2021/04/08 05:55:16;;;;;;;5.25;1.73;;;;;;;4.07;67.08;100274.25;4461787;32;33125;-81
2021/04/08 05:57:43;;;;;;;1.92;1.48;;;;;;;4.03;67.07;100272.56;4459379;32;33684;-80
2021/04/08 06:00:12;;;;;;;2.12;1.58;;;;;;;4.12;67.20;100277.69;4470501;32;34151;-80
2021/04/08 06:02:39;;;;;;;1.67;1.58;;;;;;;4.15;67.31;100287.28;4466165;32;31584;-81
2021/04/08 06:05:08;;;;;;;4.15;2.20;;;;;;;3.94;67.88;100288.31;4480097;32;33170;-81
2021/04/08 06:07:35;;;;;;;3.12;1.90;;;;;;;3.94;68.22;100298.78;4480795;32;35015;-82
2021/04/08 06:10:03;;;;;;;2.30;1.70;;;;;;;3.70;69.28;100290.25;4468373;32;34452;-81
2021/04/08 06:12:30;;;;;;;2.65;1.70;;;;;;;3.84;69.29;100298.84;4466767;32;34564;-82
2021/04/08 06:15:12;;;;;;;2.30;1.83;;;;;;;4.09;68.24;100296.03;4465526;32;33708;-81
2021/04/08 06:17:44;;;;;;;2.55;1.83;;;;;;;4.28;67.58;100291.50;4450331;32;34807;-82
2021/04/08 06:20:12;;;;;;;4.00;1.80;;;;;;;4.42;67.06;100296.59;4474907;32;33574;-81
2021/04/08 06:22:58;;;;;;;3.97;1.80;;;;;;;4.40;67.35;100293.09;4469247;32;33549;-82
2021/04/08 06:25:28;;;;;;;2.00;1.70;;;;;;;4.39;67.91;100296.62;4466984;32;32202;-82
2021/04/08 06:27:55;;;;;;;2.37;2.00;;;;;;;4.45;67.70;100299.16;4455358;32;33485;-82
2021/04/08 06:30:23;;;;;;;2.05;1.80;;;;;;;4.45;67.26;100307.00;4479103;32;33453;-82
2021/04/08 06:32:53;;;;;;;5.85;1.85;;;;;;;4.69;67.30;100296.25;4482482;32;34695;-81
2021/04/08 06:35:23;;;;;;;2.72;2.10;;;;;;;4.83;66.96;100303.94;4483227;32;34335;-81
2021/04/08 06:37:51;;;;;;;6.53;2.85;;;;;;;4.98;66.85;100301.13;4470137;32;35347;-82
2021/04/08 06:44:05;;;;;;;2.70;2.30;;;;;;;5.25;66.73;100294.66;4419216;32;34447;-82
2021/04/08 06:46:37;;;;;;;3.62;2.45;;;;;;;5.46;66.61;100292.59;4462637;32;34267;-82
2021/04/08 06:49:20;;;;;;;2.20;1.80;;;;;;;5.45;66.69;100303.97;4482325;32;33036;-82
2021/04/08 06:51:52;;;;;;;2.50;2.03;;;;;;;5.52;66.09;100308.25;4457090;32;33037;-82
2021/04/08 06:54:23;;;;;;;3.10;1.75;;;;;;;5.51;65.99;100315.25;4467208;32;34258;-82
2021/04/08 06:56:51;;;;;;;5.32;2.50;;;;;;;5.31;66.53;100314.66;4479794;32;32152;-82
2021/04/08 06:59:18;;;;;;;4.32;2.80;;;;;;;5.79;65.12;100310.44;4468702;32;34561;-81
2021/04/08 07:01:47;;;;;;;2.17;1.90;;;;;;;5.45;65.72;100319.69;4469773;32;34349;-81
2021/04/08 07:04:15;;;;;;;3.47;2.42;;;;;;;5.48;65.42;100328.37;4470242;32;34518;-81
2021/04/08 07:06:43;;;;;;;2.40;2.20;;;;;;;5.88;65.85;100325.13;4483082;32;33103;-81
2021/04/08 07:09:12;;;;;;;2.67;2.47;;;;;;;6.02;65.29;100328.44;4470347;32;33330;-81
2021/04/08 07:11:40;;;;;;;2.80;2.50;;;;;;;6.23;64.58;100329.84;4483064;32;33558;-81
2021/04/08 07:14:10;;;;;;;2.05;1.62;;;;;;;6.12;65.56;100337.00;4472419;32;33599;-81
2021/04/08 07:16:38;;;;;;;2.53;2.30;;;;;;;6.66;62.57;100334.31;4467657;32;32951;-82
2021/04/08 07:19:06;;;;;;;2.67;2.28;;;;;;;6.40;63.11;100338.25;4465401;32;33736;-81
2021/04/08 07:21:35;;;;;;;4.03;1.90;;;;;;;6.12;63.55;100347.50;4465376;32;37454;-82
2021/04/08 07:24:05;;;;;;;3.53;2.33;;;;;;;6.44;63.39;100346.06;4480126;32;33642;-81
2021/04/08 07:26:48;;;;;;;2.22;1.80;;;;;;;7.09;63.22;100341.31;4477336;32;32436;-82
2021/04/08 07:29:16;;;;;;;2.80;2.10;;;;;;;6.41;62.12;100355.75;4476783;32;36073;-82
2021/04/08 07:31:43;;;;;;;3.40;2.67;;;;;;;7.12;61.15;100351.72;4478685;32;31654;-82
2021/04/08 07:34:10;;;;;;;3.22;2.30;;;;;;;7.29;61.68;100349.63;4464404;32;31834;-82
2021/04/08 07:36:40;;;;;;;6.45;3.03;;;;;;;7.37;60.63;100352.97;4477132;32;32911;-82
2021/04/08 07:39:16;;;;;;;3.30;2.42;;;;;;;7.78;58.97;100353.78;4477859;32;33043;-82
2021/04/08 07:41:44;;;;;;;4.15;2.15;;;;;;;7.54;58.99;100351.72;4466194;32;33604;-82
2021/04/08 07:44:12;;;;;;;4.75;2.92;;;;;;;7.22;59.06;100353.31;4465400;32;33915;-82
2021/04/08 07:46:41;;;;;;;2.50;2.15;;;;;;;7.02;61.21;100361.56;4464903;32;34955;-82
2021/04/08 07:49:30;;;;;;;4.25;3.00;;;;;;;7.32;58.63;100353.97;4463747;32;33629;-82
2021/04/08 07:52:14;;;;;;;3.22;2.83;;;;;;;7.64;59.50;100361.12;4474345;32;31583;-82
2021/04/08 07:55:00;;;;;;;3.17;2.80;;;;;;;7.42;59.04;100364.22;4474023;32;33294;-82
2021/04/08 07:57:29;;;;;;;4.35;2.83;;;;;;;7.09;59.98;100368.44;4467168;32;35567;-82
2021/04/08 07:59:56;;;;;;;3.28;2.80;;;;;;;7.15;57.42;100370.06;4476802;32;33522;-82
2021/04/08 08:02:26;;;;;;;4.32;2.92;;;;;;;6.93;58.38;100374.88;4452277;32;34966;-82
2021/04/08 08:05:36;;;;;;;3.25;2.53;;;;;;;7.10;58.67;100371.94;4450854;32;33937;-82
2021/04/08 08:08:10;;;;;;;4.65;3.47;;;;;;;7.03;57.16;100372.97;4478063;32;33931;-82
2021/04/08 08:10:40;;;;;;;4.15;3.75;;;;;;;7.26;56.80;100373.31;4455942;32;34253;-82
2021/04/08 08:13:24;;;;;;;4.37;3.17;;;;;;;6.53;60.52;100378.25;4477401;32;34386;-82
2021/04/08 08:15:51;;;;;;;5.18;2.85;;;;;;;7.15;59.10;100377.94;4450411;32;32983;-82
2021/04/08 08:18:46;;;;;;;5.80;3.12;;;;;;;7.03;57.38;100376.44;4481197;32;33358;-81
2021/04/08 08:21:21;;;;;;;3.80;3.25;;;;;;;7.05;56.37;100379.87;4470873;32;33158;-81
2021/04/08 08:23:54;;;;;;;5.43;3.28;;;;;;;7.12;56.62;100388.50;4468131;32;33442;-81
2021/04/08 08:26:31;;;;;;;4.70;3.30;;;;;;;7.47;55.16;100390.41;4466932;32;33358;-81
2021/04/08 08:29:11;;;;;;;4.90;3.10;;;;;;;7.68;54.70;100386.44;4464106;32;34363;-82
2021/04/08 08:31:49;;;;;;;5.80;3.03;;;;;;;7.56;53.76;100392.84;4477210;32;33707;-81
2021/04/08 08:34:21;;;;;;;7.07;3.42;;;;;;;7.12;54.55;100406.87;4475146;32;33632;-81
2021/04/08 08:36:53;;;;;;;4.65;3.65;;;;;;;7.40;54.52;100394.91;4464011;32;34083;-81
2021/04/08 08:39:23;;;;;;;7.37;4.50;;;;;;;7.39;55.42;100405.47;4464970;32;34175;-81
2021/04/08 08:41:51;;;;;;;4.25;3.58;;;;;;;7.47;55.29;100405.31;4464137;32;33723;-81
2021/04/08 08:44:20;;;;;;;4.43;3.75;;;;;;;7.34;54.85;100415.22;4467574;32;34048;-81
2021/04/08 08:46:55;;;;;;;6.62;4.18;;;;;;;7.92;53.34;100406.03;4452132;32;35255;-81
2021/04/08 08:49:30;;;;;;;5.68;3.50;;;;;;;8.01;53.30;100405.81;4475108;32;34068;-81
2021/04/08 08:52:00;;;;;;;3.72;3.08;;;;;;;7.71;53.69;100417.91;4474854;32;34608;-81
2021/04/08 08:54:29;;;;;;;5.70;3.20;;;;;;;8.01;51.85;100412.84;4458304;32;35227;-81
2021/04/08 08:56:58;;;;;;;4.15;2.87;;;;;;;7.51;52.61;100412.25;4474090;32;34732;-81
2021/04/08 08:59:27;;;;;;;3.25;2.78;;;;;;;8.00;51.80;100416.41;4462249;32;33234;-81
2021/04/08 09:02:16;;;;;;;3.25;2.47;;;;;;;8.68;48.95;100405.94;4465376;32;32666;-81
2021/04/08 09:05:10;;;;;;;5.35;3.90;;;;;;;8.96;48.55;100396.41;4465507;32;33974;-81
2021/04/08 09:07:39;;;;;;;3.25;2.60;;;;;;;8.89;49.29;100399.25;4466200;32;33702;-82
2021/04/08 09:10:14;;;;;;;3.75;2.50;;;;;;;8.56;48.60;100401.03;4461072;32;32241;-81
2021/04/08 09:13:01;;;;;;;7.15;2.80;;;;;;;8.51;48.67;100397.66;4465954;32;32771;-81
2021/04/08 09:15:29;;;;;;;4.78;2.80;;;;;;;8.29;47.74;100397.28;4462170;32;34737;-81
2021/04/08 09:18:04;;;;;;;3.85;2.67;;;;;;;8.48;49.20;100406.47;4477390;32;33477;-81
2021/04/08 09:20:32;;;;;;;3.78;2.80;;;;;;;9.12;47.48;100401.25;4466464;32;35196;-81
2021/04/08 09:23:08;;;;;;;3.87;3.47;;;;;;;9.33;45.93;100405.91;4476718;32;32998;-81
2021/04/08 09:25:56;;;;;;;4.03;1.83;;;;;;;9.45;46.88;100400.28;4479112;32;32776;-81
2021/04/08 09:28:26;;;;;;;2.03;1.83;;;;;;;9.58;44.26;100407.81;4464313;32;34448;-81
2021/04/08 09:31:07;;;;;;;4.22;2.20;;;;;;;9.90;44.28;100402.44;4478035;32;33257;-81
2021/04/08 09:33:44;;;;;;;3.70;2.50;;;;;;;9.55;43.11;100405.28;4480417;32;33835;-81
2021/04/08 09:38:49;;;;;;;4.35;2.62;;;;;;;9.67;43.43;100407.53;4477090;32;34867;-81
2021/04/08 09:41:18;;;;;;;4.15;2.10;;;;;;;9.80;43.79;100406.25;4481172;32;33909;-81
2021/04/08 09:43:46;;;;;;;2.83;1.85;;;;;;;9.60;45.20;100411.28;4480353;32;34680;-81
2021/04/08 09:46:14;;;;;;;4.00;2.67;;;;;;;9.88;41.57;100420.09;4453458;32;35672;-81
2021/04/08 09:48:53;;;;;;;3.42;2.92;;;;;;;9.25;45.42;100428.97;4480909;32;32847;-81
2021/04/08 09:51:29;;;;;;;3.10;2.42;;;;;;;8.78;50.66;100438.16;4469559;32;32909;-82
2021/04/08 09:53:58;;;;;;;9.35;3.40;;;;;;;8.40;52.12;100455.78;4482224;32;34285;-82
2021/04/08 09:56:56;;;;;;;4.57;3.10;;;;;;;8.02;55.01;100451.41;4465759;32;33931;-81
2021/04/08 09:59:24;;;;;;;4.82;3.10;;;;;;;8.38;52.93;100444.44;4468657;32;34786;-82
2021/04/08 10:01:52;;;;;;;6.03;4.05;;;;;;;8.44;55.47;100434.63;4478467;32;33324;-82
2021/04/08 10:04:22;;;;;;;4.28;3.10;;;;;;;9.11;50.78;100415.31;4479675;32;33439;-82
2021/04/08 10:07:06;;;;;;;3.50;3.20;;;;;;;9.45;47.55;100421.38;4476776;32;33790;-81
2021/04/08 10:09:34;;;;;;;2.80;2.37;;;;;;;9.45;47.18;100412.63;4477990;32;33435;-81
2021/04/08 10:12:01;;;;;;;4.47;3.10;;;;;;;9.91;46.15;100413.84;4480968;32;32179;-82
2021/04/08 10:14:30;;;;;;;3.45;2.65;;;;;;;10.67;44.22;100410.50;4464408;32;34255;-82
2021/04/08 10:17:07;;;;;;;3.12;2.45;;;;;;;10.95;42.06;100405.97;4468273;32;33586;-82
2021/04/08 10:19:39;;;;;;;4.00;2.85;;;;;;;11.03;41.39;100416.28;4475251;32;34288;-82
2021/04/08 10:22:09;;;;;;;4.30;2.20;;;;;;;10.58;41.73;100442.50;4455957;32;32631;-82
2021/04/08 10:24:40;;;;;;;4.18;1.98;;;;;;;9.72;45.39;100466.28;4478758;32;33615;-86
2021/04/08 10:27:24;;;;;;;2.00;1.17;;;;;;;9.05;48.44;100494.53;4464323;32;33341;-83
2021/04/08 10:29:52;;;;;;;2.17;1.52;;;;;;;8.42;50.60;100499.59;4462271;32;34305;-83
2021/04/08 10:32:31;;;;;;;1.62;1.45;;;;;;;8.42;52.53;100504.87;4453298;32;34753;-83
2021/04/08 10:34:59;;;;;;;2.47;2.00;;;;;;;8.77;53.30;100505.75;4466293;32;34534;-83
2021/04/08 10:37:27;;;;;;;2.70;1.48;;;;;;;9.11;52.04;100515.44;4473186;32;33635;-83
2021/04/08 10:39:55;;;;;;;1.92;1.10;;;;;;;8.84;53.42;100506.50;4476621;32;33766;-83
2021/04/08 10:42:22;;;;;;;3.78;1.10;;;;;;;8.34;55.50;100508.53;4477164;32;33989;-83
2021/04/08 10:44:52;;;;;;;2.10;1.60;;;;;;;8.26;53.75;100507.84;4478545;32;33095;-83
2021/04/08 10:47:21;;;;;;;0.85;0.73;;;;;;;8.07;51.79;100533.69;4463973;32;33780;-82
2021/04/08 10:49:54;;;;;;;2.47;1.40;;;;;;;7.61;52.80;100555.69;4463879;32;34684;-83
2021/04/08 10:52:25;;;;;;;3.55;1.50;;;;;;;6.59;57.20;100569.69;4464650;32;33816;-83
2021/04/08 10:54:54;;;;;;;2.78;1.60;;;;;;;6.60;59.05;100570.59;4463330;32;33620;-82
2021/04/08 10:57:24;;;;;;;3.75;2.12;;;;;;;6.50;59.81;100572.44;4462123;32;32447;-82
2021/04/08 10:59:52;;;;;;;4.95;2.05;;;;;;;6.49;59.69;100577.72;4474312;32;33639;-82
2021/04/08 11:02:35;;;;;;;2.47;2.05;;;;;;;6.43;60.21;100583.06;4461988;32;33045;-82
2021/04/08 11:05:15;;;;;;;2.10;1.60;;;;;;;5.62;62.44;100585.78;4473745;32;34572;-82
2021/04/08 11:07:48;;;;;;;3.55;2.70;;;;;;;5.69;63.37;100570.00;4466289;32;33730;-82
2021/04/08 11:18:23;;;;;;;3.40;2.45;;;;;;;6.60;64.55;100533.84;4225495;33;34756;-82
2021/04/08 11:20:51;;;;;;;7.10;3.05;;;;;;;7.26;63.17;100543.19;4221519;33;33460;-82
2021/04/08 11:23:19;;;;;;;4.35;2.90;;;;;;;7.63;62.96;100527.59;4226491;33;33647;-82
2021/04/08 11:29:08;;;;;;;1.10;0.65;;;;;;;7.29;61.02;100580.78;3882093;32;20129;-87
2021/04/08 11:31:42;;;;;;;1.20;1.08;;;;;;;6.89;57.63;100586.72;4491619;31;166990;-87
2021/04/08 11:34:51;;;;;;;2.92;1.67;;;;;;;6.89;57.63;100586.72;4472460;32;34345;-86
2021/04/08 11:37:32;;;;;;;3.83;1.35;;;;;;;5.77;61.35;100574.25;4464119;32;34688;-85
2021/04/08 11:40:00;;;;;;;6.68;1.70;;;;;;;5.40;64.61;100568.56;4478433;32;35563;-86
2021/04/08 11:42:35;;;;;;;2.15;1.90;;;;;;;6.03;62.44;100560.88;4495591;31;33748;-86
2021/04/08 11:45:27;;;;;;;1.70;1.58;;;;;;;6.09;63.29;100555.56;4469071;32;32429;-86
2021/04/08 11:48:04;;;;;;;1.37;1.23;;;;;;;6.50;62.90;100556.69;4482673;31;33625;-86
2021/04/08 11:50:36;;;;;;;3.33;1.00;;;;;;;7.00;60.90;100555.03;4475643;32;34960;-86
2021/04/08 11:53:08;;;;;;;3.60;1.50;;;;;;;6.97;61.15;100547.19;4495453;31;33809;-86
2021/04/08 11:55:46;;;;;;;1.95;1.40;;;;;;;6.85;60.99;100548.28;4469125;32;34052;-86
2021/04/08 11:58:43;;;;;;;1.80;1.30;;;;;;;7.35;59.58;100546.53;4482417;32;34020;-86
2021/04/08 12:01:12;;;;;;;3.12;1.95;;;;;;;8.13;58.07;100529.19;4466372;32;35111;-86
2021/04/08 12:03:45;;;;;;;2.75;2.10;;;;;;;8.11;59.43;100522.22;4482132;32;33871;-85
2021/04/08 12:06:17;;;;;;;2.95;1.55;;;;;;;8.60;59.43;100513.22;4467212;31;33828;-86
2021/04/08 12:08:52;;;;;;;;;;;;;;;8.82;57.43;100505.66;4480134;32;34728;-86
2021/04/08 12:11:20;;;;;;;2.25;1.52;;;;;;;9.11;57.71;100500.50;4480302;31;34664;-85